Impacts METAR Board INFO
IDs:

KTPA - Tampa Intl Arpt, FL, US

Updated at: 1544 UTC 19 Nov 2017
Potential Impact None Slight Moderate High
Time19/03Z 19/04Z 19/05Z 19/06Z 19/07Z 19/08Z 19/09Z 19/10Z 19/11Z 19/12Z 19/13Z 19/14Z 19/15Z
VIS10 10 10 10 10 10 10 10 10 10 10 10 10
CIG47 -- -- -- -- -- -- -- -- 70 -- -- --
CoverBKNFEWFEWFEWFEWFEWFEWFEWFEWBKNFEWFEWFEW
FltCatVFRVFRVFRVFRVFRVFRVFRVFRVFRVFRVFRVFRVFR
WX--------------------------
WDir1600180260210210200180170170180190220
WSpd3 0 3 4 6 4 6 5 6 4 6 8 9
WGst-- -- -- -- -- -- -- -- -- -- -- -- --
Raw hourly METARs
KTPA 190253Z 16003KT 10SM BKN047 21/17 A2998 RMK AO2 SLP150 T02110167 50004
KTPA 190353Z 00000KT 10SM FEW045 21/17 A2997 RMK AO2 SLP149 T02110167
KTPA 190453Z 18003KT 10SM FEW045 21/17 A2997 RMK AO2 SLP146 T02060172 402610144
KTPA 190553Z 26004KT 10SM FEW055 FEW160 21/18 A2997 RMK AO2 SLP146 T02060178 10217 20200 56004
KTPA 190653Z 21006KT 10SM FEW050 FEW160 21/18 A2995 RMK AO2 SLP141 T02060178
KTPA 190753Z COR 21004KT 10SM FEW050 FEW160 21/18 A2994 RMK AO2 SLP138 T02060178
KTPA 190853Z 20006KT 10SM FEW028 21/18 A2994 RMK AO2 SLP136 T02060183 56010
KTPA 190953Z 18005KT 10SM FEW028 21/18 A2992 RMK AO2 SLP132 T02110183
KTPA 191053Z 17006KT 10SM FEW150 21/18 A2993 RMK AO2 SLP134 T02060183
KTPA 191153Z 17004KT 10SM BKN070 21/19 A2994 RMK AO2 SLP136 T02060189 10211 20200 55000
KTPA 191253Z COR 18006KT 10SM FEW020 FEW070 22/19 A2994 RMK AO2 SLP137 T02170194
KTPA 191353Z 19008KT 10SM FEW020 23/20 A2995 RMK AO2 SLP141 T02280200
KTPA 191453Z 22009KT 10SM FEW022 25/19 A2996 RMK AO2 SLP144 CB DSNT W T02500194 53008